M/T Pazar — TCMC — position and weather

sailwx.info

Track history (hours):
 
Tides and Currents Weather Stations Pressure Air Temp Water Temp Dewpoint Dewpoint Depression Visibility Wind Speed Wind Dir Waves Ship Positions

M/T Pazar

Last reported at 2017-Mar-19 03:28 UTC. Time now 2017-Mar-23 02:21 UTC.
Position N 40°41' E 003°32'.

Length 85 m; draft 5.6 m.

Type: Tanker. MMSI: 271000251.

Date/timePositionNaut miles runAvg speedWind from/ knotsBaromVisibWave heightAir tempDewpointWater temp
2017-Mar-19 03:28N 40°41' E 003°32'9 9.6
2017-Mar-19 02:33N 40°46' E 003°21'11 9.9
2017-Mar-19 01:26N 40°52' E 003°10'8 9.7
2017-Mar-19 00:33N 40°57' E 003°00'10 9.9
2017-Mar-18 23:33N 41°02' E 002°49'10 9.8
2017-Mar-18 22:33N 41°07' E 002°38'9 9.5
2017-Mar-18 21:33N 41°13' E 002°28'9 9.1
2017-Mar-18 20:33N 41°17' E 002°18'6 5.1
2017-Mar-18 19:28N 41°20' E 002°11'0 0.0
2017-Mar-18 16:25N 41°20' E 002°11'0 0.0
2017-Mar-18 14:07N 41°20' E 002°11'0 0.0
2017-Mar-18 04:31N 41°20' E 002°11'0 0.0
2017-Mar-18 02:25N 41°20' E 002°11'0 0.0
2017-Mar-18 00:13N 41°20' E 002°11'0 0.0
2017-Mar-17 18:19N 41°20' E 002°11'0 0.0
2017-Mar-17 13:25N 41°20' E 002°11'0 0.0
2017-Mar-17 11:19N 41°20' E 002°11'0 0.0
2017-Mar-17 10:31N 41°20' E 002°11'0 0.0
2017-Mar-17 03:13N 41°20' E 002°11'0 0.0
2017-Mar-17 01:19N 41°20' E 002°11'0 0.0
2017-Mar-17 00:31N 41°20' E 002°11'0 0.0
2017-Mar-16 22:31N 41°20' E 002°11'0 0.0
2017-Mar-16 21:28N 41°20' E 002°11'0 0.0
2017-Mar-16 20:13N 41°20' E 002°11'0 0.0
2017-Mar-16 19:13N 41°20' E 002°11'0 0.0
2017-Mar-16 18:31N 41°20' E 002°11'0 0.0
2017-Mar-16 02:31N 41°20' E 002°11'0 0.0
2017-Mar-16 01:25N 41°20' E 002°11'0 0.0
2017-Mar-15 23:13N 41°20' E 002°11'0 0.0
2017-Mar-15 22:31N 41°20' E 002°11'0 0.0
2017-Mar-15 21:31N 41°20' E 002°11'0 0.0
2017-Mar-14 13:28N 41°20' E 002°11'0 0.0
2017-Mar-14 11:04N 41°20' E 002°11'0 0.0
2017-Mar-13 20:04N 41°20' E 002°11'1 0.0
2017-Mar-12 00:33N 41°21' E 002°10'12 9.1
2017-Mar-11 23:14N 41°11' E 002°18'710.6
2017-Mar-11 22:33N 41°05' E 002°24'2210.9
2017-Mar-11 20:33N 40°48' E 002°42'1110.6
2017-Mar-11 19:33N 40°40' E 002°51'1010.4
2017-Mar-11 18:33N 40°32' E 002°59'1110.5
2017-Mar-11 17:33N 40°23' E 003°08'3210.7
2017-Mar-11 14:33N 39°58' E 003°34'  
Track history (hours):
 
Tides and Currents Weather Stations Pressure Air Temp Water Temp Dewpoint Dewpoint Depression Visibility Wind Speed Wind Dir Waves Ship Positions

M/T Pazar

Last reported at 2017-Mar-19 03:28 UTC. Time now 2017-Mar-23 02:21 UTC.
Position N 40°41' E 003°32'.

Length 85 m; draft 5.6 m.

Type: Tanker. MMSI: 271000251.

Date/timePositionNaut miles runAvg speedWind from/ knotsBaromVisibWave heightAir tempDewpointWater temp
2017-Mar-19 03:28N 40°41' E 003°32'9 9.6
2017-Mar-19 02:33N 40°46' E 003°21'11 9.9
2017-Mar-19 01:26N 40°52' E 003°10'8 9.7
2017-Mar-19 00:33N 40°57' E 003°00'10 9.9
2017-Mar-18 23:33N 41°02' E 002°49'10 9.8
2017-Mar-18 22:33N 41°07' E 002°38'9 9.5
2017-Mar-18 21:33N 41°13' E 002°28'9 9.1
2017-Mar-18 20:33N 41°17' E 002°18'6 5.1
2017-Mar-18 19:28N 41°20' E 002°11'0 0.0
2017-Mar-18 16:25N 41°20' E 002°11'0 0.0
2017-Mar-18 14:07N 41°20' E 002°11'0 0.0
2017-Mar-18 04:31N 41°20' E 002°11'0 0.0
2017-Mar-18 02:25N 41°20' E 002°11'0 0.0
2017-Mar-18 00:13N 41°20' E 002°11'0 0.0
2017-Mar-17 18:19N 41°20' E 002°11'0 0.0
2017-Mar-17 13:25N 41°20' E 002°11'0 0.0
2017-Mar-17 11:19N 41°20' E 002°11'0 0.0
2017-Mar-17 10:31N 41°20' E 002°11'0 0.0
2017-Mar-17 03:13N 41°20' E 002°11'0 0.0
2017-Mar-17 01:19N 41°20' E 002°11'0 0.0
2017-Mar-17 00:31N 41°20' E 002°11'0 0.0
2017-Mar-16 22:31N 41°20' E 002°11'0 0.0
2017-Mar-16 21:28N 41°20' E 002°11'0 0.0
2017-Mar-16 20:13N 41°20' E 002°11'0 0.0
2017-Mar-16 19:13N 41°20' E 002°11'0 0.0
2017-Mar-16 18:31N 41°20' E 002°11'0 0.0
2017-Mar-16 02:31N 41°20' E 002°11'0 0.0
2017-Mar-16 01:25N 41°20' E 002°11'0 0.0
2017-Mar-15 23:13N 41°20' E 002°11'0 0.0
2017-Mar-15 22:31N 41°20' E 002°11'0 0.0
2017-Mar-15 21:31N 41°20' E 002°11'0 0.0
2017-Mar-14 13:28N 41°20' E 002°11'0 0.0
2017-Mar-14 11:04N 41°20' E 002°11'0 0.0
2017-Mar-13 20:04N 41°20' E 002°11'1 0.0
2017-Mar-12 00:33N 41°21' E 002°10'12 9.1
2017-Mar-11 23:14N 41°11' E 002°18'710.6
2017-Mar-11 22:33N 41°05' E 002°24'2210.9
2017-Mar-11 20:33N 40°48' E 002°42'1110.6
2017-Mar-11 19:33N 40°40' E 002°51'1010.4
2017-Mar-11 18:33N 40°32' E 002°59'1110.5
2017-Mar-11 17:33N 40°23' E 003°08'3210.7
2017-Mar-11 14:33N 39°58' E 003°34'  

Dump ship's entire track history